Time;durP1;ratioP1;P1;durP2;ratioP2;P2;SDS_P1;SDS_P2;PMS_P1;PMS_P2;Temp;Humidity;BMP_temperature;BMP_pressure;BME280_temperature;BME280_humidity;BME280_pressure;Samples;Min_cycle;Max_cycle;Signal;HPM_P1;HPM_P2
2021/07/05 00:01:04;;;;;;;3.13;1.33;;;16.70;99.90;;;;;;5031869;28;20474;-72
2021/07/05 00:03:30;;;;;;;2.80;1.33;;;16.70;99.90;;;;;;5031741;28;20041;-73
2021/07/05 00:05:55;;;;;;;2.40;1.30;;;16.70;99.90;;;;;;5028317;28;20061;-72
2021/07/05 00:08:21;;;;;;;3.85;1.58;;;16.80;99.90;;;;;;5011695;28;20026;-72
2021/07/05 00:10:47;;;;;;;4.85;1.40;;;16.80;99.90;;;;;;5012985;28;20030;-72
2021/07/05 00:13:14;;;;;;;2.67;1.27;;;16.90;99.90;;;;;;5012842;28;20096;-73
2021/07/05 00:15:40;;;;;;;3.55;2.35;;;17.00;99.90;;;;;;5013169;28;20081;-74
2021/07/05 00:18:08;;;;;;;2.75;1.55;;;16.90;99.90;;;;;;5027677;28;20033;-73
2021/07/05 00:20:45;;;;;;;2.97;1.60;;;17.00;99.90;;;;;;5012871;28;20034;-72
2021/07/05 00:23:11;;;;;;;4.03;1.77;;;17.00;99.90;;;;;;5012813;28;20034;-73
2021/07/05 00:25:38;;;;;;;5.38;2.38;;;17.00;99.90;;;;;;5027975;28;20125;-72
2021/07/05 00:28:05;;;;;;;5.07;2.40;;;16.90;99.90;;;;;;5028124;28;20058;-72
2021/07/05 00:30:32;;;;;;;6.72;1.90;;;16.70;99.90;;;;;;5011678;28;20033;-73
2021/07/05 00:32:58;;;;;;;4.72;2.00;;;16.60;99.90;;;;;;5012642;28;20049;-73
2021/07/05 00:35:25;;;;;;;6.35;2.80;;;16.50;99.90;;;;;;5012585;28;20065;-72
2021/07/05 00:37:53;;;;;;;4.68;2.15;;;16.40;99.90;;;;;;5027857;28;20038;-73
2021/07/05 00:40:20;;;;;;;5.20;2.22;;;16.40;99.90;;;;;;5012515;28;20620;-73
2021/07/05 00:42:47;;;;;;;4.97;2.30;;;16.40;99.90;;;;;;5012676;28;20172;-72
2021/07/05 00:45:15;;;;;;;3.60;1.75;;;16.30;99.90;;;;;;5027679;28;20045;-71
2021/07/05 00:47:41;;;;;;;6.85;2.15;;;16.40;99.90;;;;;;5012548;28;20116;-72
2021/07/05 00:50:10;;;;;;;4.95;1.98;;;16.40;99.90;;;;;;5027739;28;20135;-72
2021/07/05 00:52:40;;;;;;;4.55;1.95;;;16.40;99.90;;;;;;5012377;28;20479;-73
2021/07/05 00:55:09;;;;;;;3.45;2.13;;;16.30;99.90;;;;;;5027307;28;20115;-73
2021/07/05 00:57:35;;;;;;;3.08;1.98;;;16.40;99.90;;;;;;5027454;28;20045;-74
2021/07/05 01:00:04;;;;;;;5.57;2.25;;;16.40;99.90;;;;;;5011385;28;20033;-72
2021/07/05 01:02:29;;;;;;;10.27;2.08;;;16.30;99.90;;;;;;5012263;28;20463;-73
2021/07/05 01:04:56;;;;;;;2.70;1.40;;;16.30;99.90;;;;;;5012571;28;20127;-73
2021/07/05 01:07:24;;;;;;;3.47;1.73;;;16.20;99.90;;;;;;5030985;28;20498;-73
2021/07/05 01:09:50;;;;;;;5.32;2.25;;;16.20;99.90;;;;;;5031086;28;20060;-73
2021/07/05 01:12:16;;;;;;;3.30;1.60;;;16.20;99.90;;;;;;5033707;28;20076;-72
2021/07/05 01:14:43;;;;;;;5.30;2.05;;;16.20;99.90;;;;;;5018344;28;20033;-72
2021/07/05 01:17:15;;;;;;;5.40;1.77;;;16.10;99.90;;;;;;5035660;28;20382;-73
2021/07/05 01:19:48;;;;;;;4.43;1.48;;;16.10;99.90;;;;;;5035120;28;20033;-73
2021/07/05 01:22:16;;;;;;;5.68;2.22;;;16.10;99.90;;;;;;5036175;28;20042;-73
2021/07/05 01:24:44;;;;;;;5.95;1.55;;;16.10;99.90;;;;;;5034917;28;20060;-73
2021/07/05 01:27:10;;;;;;;5.47;1.90;;;16.10;99.90;;;;;;5035858;28;20034;-72
2021/07/05 01:29:38;;;;;;;2.80;1.58;;;16.10;99.90;;;;;;5034865;28;20030;-73
2021/07/05 01:32:05;;;;;;;2.40;1.58;;;16.00;99.90;;;;;;5018034;28;20060;-74
2021/07/05 01:34:31;;;;;;;4.90;1.80;;;16.00;99.90;;;;;;5035938;28;20065;-72
2021/07/05 01:36:57;;;;;;;6.38;1.98;;;16.00;99.90;;;;;;5017786;28;20493;-72
2021/07/05 01:39:23;;;;;;;3.72;1.85;;;16.00;99.90;;;;;;5035251;28;20036;-73
2021/07/05 01:41:50;;;;;;;6.22;1.65;;;16.00;99.90;;;;;;5035522;28;20033;-73
2021/07/05 01:44:16;;;;;;;2.90;1.35;;;16.00;99.90;;;;;;5034207;28;20041;-73
2021/07/05 01:46:43;;;;;;;2.22;1.40;;;16.00;99.90;;;;;;5035682;28;20029;-74
2021/07/05 01:49:11;;;;;;;4.78;2.08;;;16.00;99.90;;;;;;5034333;28;20034;-74
2021/07/05 01:51:37;;;;;;;4.65;1.58;;;16.00;99.90;;;;;;5034208;28;20478;-73
2021/07/05 01:54:05;;;;;;;8.00;1.55;;;15.90;99.90;;;;;;5033910;28;20033;-72
2021/07/05 01:56:31;;;;;;;6.43;1.60;;;16.00;99.90;;;;;;5034154;28;20087;-73
2021/07/05 01:58:58;;;;;;;4.20;1.55;;;15.90;99.90;;;;;;5035128;28;20167;-73
2021/07/05 02:01:24;;;;;;;4.28;1.77;;;15.90;99.90;;;;;;5034037;28;20029;-72
2021/07/05 02:03:49;;;;;;;4.75;1.50;;;15.90;99.90;;;;;;5035103;28;20458;-73
2021/07/05 02:06:16;;;;;;;5.65;1.42;;;16.00;99.90;;;;;;5034795;28;20068;-72
2021/07/05 02:08:42;;;;;;;2.80;1.55;;;16.00;99.90;;;;;;5033782;28;20041;-73
2021/07/05 02:11:08;;;;;;;3.80;2.05;;;16.00;99.90;;;;;;5035066;28;20044;-74
2021/07/05 02:13:37;;;;;;;9.65;1.80;;;16.10;99.90;;;;;;5035113;28;20053;-72
2021/07/05 02:16:03;;;;;;;3.45;1.50;;;16.10;99.90;;;;;;5034858;28;20038;-73
2021/07/05 02:18:31;;;;;;;2.40;1.75;;;16.10;99.90;;;;;;5033411;28;20053;-73
2021/07/05 02:21:02;;;;;;;3.72;1.55;;;16.00;99.90;;;;;;5033885;28;20030;-72
2021/07/05 02:23:28;;;;;;;3.35;1.63;;;16.10;99.90;;;;;;5033070;28;20026;-72
2021/07/05 02:25:54;;;;;;;7.93;1.75;;;16.10;99.90;;;;;;5034959;28;20044;-72
2021/07/05 02:28:28;;;;;;;4.15;1.65;;;16.10;99.90;;;;;;5034385;28;20025;-72
2021/07/05 02:30:55;;;;;;;5.10;1.35;;;16.30;99.90;;;;;;5033593;28;20037;-73
2021/07/05 02:33:27;;;;;;;3.53;1.55;;;16.40;99.90;;;;;;5033428;28;20033;-73
2021/07/05 02:35:54;;;;;;;3.63;1.30;;;16.40;99.90;;;;;;5033475;28;20061;-72
2021/07/05 02:38:22;;;;;;;4.78;1.38;;;16.40;99.90;;;;;;5032953;28;20068;-73
2021/07/05 02:40:55;;;;;;;3.33;1.50;;;16.50;99.90;;;;;;5033176;28;20452;-74
2021/07/05 02:43:22;;;;;;;4.03;1.38;;;16.50;99.90;;;;;;5034558;28;20042;-72
2021/07/05 02:45:51;;;;;;;9.85;1.50;;;16.50;99.90;;;;;;5016366;28;20037;-73
2021/07/05 02:48:21;;;;;;;5.28;1.58;;;16.50;99.90;;;;;;5034087;28;20029;-73
2021/07/05 02:50:55;;;;;;;2.72;1.50;;;16.50;99.90;;;;;;5034291;28;20025;-73
2021/07/05 02:53:22;;;;;;;8.82;1.92;;;16.50;99.90;;;;;;5034508;28;20168;-72
2021/07/05 02:55:48;;;;;;;2.58;1.70;;;16.50;99.90;;;;;;5033052;28;20482;-72
2021/07/05 02:58:15;;;;;;;4.15;2.05;;;16.50;99.90;;;;;;5032769;28;20096;-73
2021/07/05 03:00:45;;;;;;;2.70;1.77;;;16.40;99.90;;;;;;5034317;28;20116;-73
2021/07/05 03:03:12;;;;;;;5.10;1.80;;;16.40;99.90;;;;;;5032835;28;20044;-72
2021/07/05 03:05:38;;;;;;;3.47;1.60;;;16.30;99.90;;;;;;5032572;28;20048;-73
2021/07/05 03:08:04;;;;;;;3.42;1.70;;;16.30;99.90;;;;;;5016599;28;20497;-72
2021/07/05 03:10:34;;;;;;;5.60;2.10;;;16.30;99.90;;;;;;5016052;28;20433;-73
2021/07/05 03:13:04;;;;;;;4.65;1.65;;;16.30;99.90;;;;;;5034173;28;20070;-73
2021/07/05 03:15:30;;;;;;;4.22;2.03;;;16.30;99.90;;;;;;5032523;28;20088;-72
2021/07/05 03:17:57;;;;;;;7.75;1.95;;;16.30;99.90;;;;;;5032898;28;20061;-72
2021/07/05 03:20:27;;;;;;;3.92;1.80;;;16.30;99.90;;;;;;5015898;28;20548;-73
2021/07/05 03:22:58;;;;;;;3.13;2.13;;;16.30;99.90;;;;;;5032713;28;20045;-72
2021/07/05 03:25:26;;;;;;;3.72;1.60;;;16.30;99.90;;;;;;5033587;28;20057;-72
2021/07/05 03:27:52;;;;;;;4.80;2.20;;;16.20;99.90;;;;;;5032559;28;20041;-74
2021/07/05 03:30:21;;;;;;;5.35;2.05;;;16.20;99.90;;;;;;5032431;28;20120;-73
2021/07/05 03:32:48;;;;;;;3.10;1.77;;;16.20;99.90;;;;;;5033840;28;20100;-73
2021/07/05 03:35:15;;;;;;;4.00;2.10;;;16.30;99.90;;;;;;5032808;28;20125;-73
2021/07/05 03:37:42;;;;;;;7.65;1.95;;;16.30;99.90;;;;;;5033695;28;20425;-71
2021/07/05 03:40:12;;;;;;;3.63;1.83;;;16.30;99.90;;;;;;5033247;28;20087;-73
2021/07/05 03:42:38;;;;;;;6.30;2.25;;;16.30;99.90;;;;;;5032096;28;20025;-72
2021/07/05 03:45:07;;;;;;;4.97;1.90;;;16.30;99.90;;;;;;5032014;28;20067;-72
2021/07/05 03:47:34;;;;;;;3.22;1.70;;;16.40;99.90;;;;;;5031860;28;20045;-73
2021/07/05 03:50:00;;;;;;;4.72;2.10;;;16.40;99.90;;;;;;5030494;28;20026;-72
2021/07/05 03:52:25;;;;;;;3.63;1.70;;;16.40;99.90;;;;;;5033189;28;20041;-73
2021/07/05 03:54:51;;;;;;;6.53;1.63;;;16.40;99.90;;;;;;5015371;28;20029;-71
2021/07/05 03:57:25;;;;;;;5.90;2.03;;;16.50;99.90;;;;;;4998680;28;20036;-70
2021/07/05 03:59:54;;;;;;;5.97;2.45;;;16.50;99.90;;;;;;4995644;28;20102;-74
2021/07/05 04:02:21;;;;;;;3.45;2.10;;;16.60;99.90;;;;;;4994002;28;20087;-69
2021/07/05 04:04:47;;;;;;;3.85;2.17;;;16.70;99.90;;;;;;5022626;28;20029;-71
2021/07/05 04:07:14;;;;;;;5.82;2.47;;;16.70;99.90;;;;;;5023165;28;20522;-69
2021/07/05 04:09:40;;;;;;;3.88;2.15;;;16.70;99.90;;;;;;5012197;28;20435;-71
2021/07/05 04:12:10;;;;;;;8.32;1.92;;;16.70;99.90;;;;;;4995453;28;20033;-72
2021/07/05 04:14:37;;;;;;;5.95;2.70;;;16.80;99.90;;;;;;4995664;28;20042;-69
2021/07/05 04:17:03;;;;;;;4.50;2.00;;;16.80;99.90;;;;;;5012802;28;20045;-69
2021/07/05 04:19:29;;;;;;;4.20;2.17;;;16.80;99.90;;;;;;5006348;28;20037;-66
2021/07/05 04:21:55;;;;;;;4.43;2.22;;;16.80;99.90;;;;;;5015022;28;20563;-69
2021/07/05 04:24:21;;;;;;;3.17;1.83;;;16.90;99.90;;;;;;5032245;28;20052;-68
2021/07/05 04:26:46;;;;;;;3.67;1.90;;;16.90;99.90;;;;;;5032744;28;20030;-69
2021/07/05 04:29:12;;;;;;;3.55;2.35;;;17.00;99.90;;;;;;5014925;28;20083;-68
2021/07/05 04:31:38;;;;;;;5.35;1.88;;;17.10;99.90;;;;;;5032219;28;20131;-67
2021/07/05 04:34:04;;;;;;;4.07;1.95;;;17.10;99.90;;;;;;5032636;28;20025;-67
2021/07/05 04:36:30;;;;;;;3.13;1.90;;;17.20;99.90;;;;;;5032206;28;20037;-68
2021/07/05 04:38:56;;;;;;;6.53;2.00;;;17.20;99.90;;;;;;5015061;28;20041;-66
2021/07/05 04:41:22;;;;;;;5.57;1.85;;;17.30;99.90;;;;;;5014604;28;20164;-67
2021/07/05 04:43:47;;;;;;;4.70;1.63;;;17.30;99.90;;;;;;5018382;28;20505;-66
2021/07/05 04:46:16;;;;;;;7.53;1.98;;;17.30;99.90;;;;;;5030507;28;20106;-67
2021/07/05 04:48:41;;;;;;;3.63;1.75;;;17.30;99.90;;;;;;5011537;28;20045;-68
2021/07/05 04:51:09;;;;;;;5.70;1.67;;;17.40;99.90;;;;;;4995258;28;20046;-67
2021/07/05 04:53:36;;;;;;;2.55;1.40;;;17.50;99.90;;;;;;5012580;28;20105;-66
2021/07/05 04:56:02;;;;;;;2.97;1.48;;;17.60;99.90;;;;;;4994946;28;20112;-66
2021/07/05 04:58:28;;;;;;;3.53;1.38;;;17.60;99.90;;;;;;4994839;28;20030;-66
2021/07/05 05:00:54;;;;;;;5.30;1.60;;;17.60;99.90;;;;;;5012534;28;20044;-67
2021/07/05 05:03:20;;;;;;;5.03;1.52;;;17.60;99.90;;;;;;4994538;28;20120;-67
2021/07/05 05:05:46;;;;;;;4.05;1.20;;;17.70;99.90;;;;;;5012126;28;20185;-67
2021/07/05 05:08:12;;;;;;;2.40;1.40;;;17.70;99.90;;;;;;4995108;28;20038;-67
2021/07/05 05:10:41;;;;;;;9.25;1.88;;;17.70;99.90;;;;;;4994632;28;20124;-68
2021/07/05 05:13:08;;;;;;;6.60;1.50;;;17.70;99.90;;;;;;5012590;28;20029;-67
2021/07/05 05:15:33;;;;;;;4.43;1.45;;;17.70;99.90;;;;;;4994700;28;20076;-68
2021/07/05 05:18:01;;;;;;;2.15;1.33;;;17.80;99.90;;;;;;5012310;28;20080;-68
2021/07/05 05:20:26;;;;;;;4.80;1.20;;;17.80;99.90;;;;;;5011942;28;20041;-68
2021/07/05 05:22:53;;;;;;;4.10;1.40;;;17.80;99.90;;;;;;4978271;28;20030;-68
2021/07/05 05:25:20;;;;;;;3.58;1.40;;;17.80;99.90;;;;;;5011441;28;20030;-66
2021/07/05 05:27:47;;;;;;;2.47;1.35;;;17.80;99.90;;;;;;5011068;28;20026;-67
2021/07/05 05:30:17;;;;;;;4.45;1.45;;;17.90;99.90;;;;;;4994257;28;20030;-67
2021/07/05 05:32:45;;;;;;;2.22;1.23;;;17.90;99.90;;;;;;5011756;28;20360;-67
2021/07/05 05:35:13;;;;;;;4.60;1.50;;;17.90;99.90;;;;;;5011536;28;20042;-67
2021/07/05 05:37:38;;;;;;;4.13;1.30;;;17.90;99.90;;;;;;5011367;28;20032;-67
2021/07/05 05:40:06;;;;;;;5.70;1.50;;;17.90;99.90;;;;;;4994157;28;20034;-68
2021/07/05 05:42:32;;;;;;;4.38;1.40;;;17.90;99.90;;;;;;4994258;28;20438;-67
2021/07/05 05:44:58;;;;;;;5.35;1.63;;;18.00;99.90;;;;;;4994755;28;20072;-67
2021/07/05 05:47:24;;;;;;;4.65;1.27;;;18.00;99.90;;;;;;4994082;28;20427;-66
2021/07/05 05:49:50;;;;;;;5.20;1.25;;;18.00;99.90;;;;;;5012151;28;20026;-67
2021/07/05 05:52:15;;;;;;;2.47;1.23;;;18.00;99.90;;;;;;5014693;28;20475;-68
2021/07/05 05:54:41;;;;;;;3.35;1.45;;;18.10;99.90;;;;;;4994215;28;20041;-68
2021/07/05 05:57:08;;;;;;;3.28;1.17;;;18.10;99.90;;;;;;5013062;28;20030;-67
2021/07/05 05:59:50;;;;;;;6.53;1.45;;;18.10;99.90;;;;;;5015776;28;20069;-67
2021/07/05 06:02:15;;;;;;;3.92;1.60;;;18.10;99.90;;;;;;5015645;28;20065;-66
2021/07/05 06:04:41;;;;;;;6.05;1.63;;;18.20;99.90;;;;;;5015333;28;20044;-67
2021/07/05 06:07:07;;;;;;;4.70;1.20;;;18.10;99.90;;;;;;4997811;28;20514;-66
2021/07/05 06:09:32;;;;;;;2.97;1.30;;;18.10;99.90;;;;;;5015057;28;20034;-67
2021/07/05 06:11:58;;;;;;;5.35;1.67;;;18.20;99.90;;;;;;5015524;28;20022;-67
2021/07/05 06:14:24;;;;;;;2.25;1.42;;;18.10;99.90;;;;;;4997547;28;20471;-67
2021/07/05 06:16:50;;;;;;;3.30;1.25;;;18.10;99.90;;;;;;4981889;28;20038;-67
2021/07/05 06:19:15;;;;;;;4.53;1.20;;;18.00;99.90;;;;;;5015362;28;20034;-67
2021/07/05 06:21:41;;;;;;;2.17;1.23;;;18.00;99.90;;;;;;5014754;28;20034;-67
2021/07/05 06:24:07;;;;;;;2.17;1.23;;;18.10;99.90;;;;;;5017647;28;20038;-67
2021/07/05 06:26:33;;;;;;;4.70;1.15;;;18.10;99.90;;;;;;4997375;28;20040;-67
2021/07/05 06:28:58;;;;;;;3.50;1.30;;;18.10;99.90;;;;;;4997731;28;20034;-67
2021/07/05 06:31:25;;;;;;;5.38;1.30;;;18.10;99.90;;;;;;5014746;28;20026;-67
2021/07/05 06:33:50;;;;;;;3.03;1.30;;;18.20;99.90;;;;;;5015129;28;20034;-66
2021/07/05 06:36:17;;;;;;;3.05;1.40;;;18.10;99.90;;;;;;5015322;28;20430;-67
2021/07/05 06:38:43;;;;;;;2.75;1.10;;;18.10;99.90;;;;;;5014836;28;20034;-67
2021/07/05 06:41:09;;;;;;;4.93;1.02;;;18.10;99.90;;;;;;5015225;28;20069;-66
2021/07/05 06:43:35;;;;;;;3.42;1.05;;;18.10;99.90;;;;;;4997408;28;20065;-67
2021/07/05 06:46:01;;;;;;;8.18;1.67;;;18.20;99.90;;;;;;5014924;28;20375;-67
2021/07/05 06:48:26;;;;;;;2.50;1.38;;;18.20;99.90;;;;;;4997190;28;20033;-67
2021/07/05 06:50:52;;;;;;;2.63;1.25;;;18.20;99.90;;;;;;5014381;28;20038;-67
2021/07/05 06:53:18;;;;;;;3.38;1.00;;;18.30;99.90;;;;;;5014438;28;20034;-67
2021/07/05 06:55:44;;;;;;;5.25;1.20;;;18.30;99.90;;;;;;5014642;28;20121;-68
2021/07/05 06:58:10;;;;;;;4.22;1.30;;;18.30;99.90;;;;;;5014300;28;20030;-67
2021/07/05 07:00:35;;;;;;;4.22;1.48;;;18.30;99.90;;;;;;5014076;28;20033;-67
2021/07/05 07:03:04;;;;;;;8.80;1.90;;;18.30;99.90;;;;;;5014581;28;20084;-68
2021/07/05 07:05:33;;;;;;;2.78;1.35;;;18.30;99.90;;;;;;4996811;28;20387;-68
2021/07/05 07:08:00;;;;;;;2.08;1.20;;;18.30;99.90;;;;;;4996695;28;20038;-67
2021/07/05 07:10:26;;;;;;;2.55;1.08;;;18.30;99.90;;;;;;5013455;28;20040;-67
2021/07/05 07:12:57;;;;;;;3.90;1.35;;;18.30;99.90;;;;;;5014364;28;20037;-67
2021/07/05 07:15:32;;;;;;;2.67;1.20;;;18.40;99.90;;;;;;4997169;28;20033;-68
2021/07/05 07:20:25;;;;;;;3.58;1.20;;;18.40;99.90;;;;;;4996369;28;20029;-67
2021/07/05 07:22:51;;;;;;;3.97;1.10;;;18.50;99.90;;;;;;4996326;28;20036;-67
2021/07/05 07:25:17;;;;;;;3.47;1.10;;;18.60;99.90;;;;;;4980227;28;20033;-68
2021/07/05 07:27:43;;;;;;;3.60;1.30;;;18.70;99.90;;;;;;5013752;28;20030;-68
2021/07/05 07:30:13;;;;;;;4.95;1.40;;;18.70;99.90;;;;;;4998774;28;20033;-68
2021/07/05 07:32:42;;;;;;;2.60;1.20;;;18.50;99.90;;;;;;5013901;28;20062;-67
2021/07/05 07:35:09;;;;;;;2.42;1.10;;;18.60;99.90;;;;;;4980110;28;20034;-67
2021/07/05 07:37:36;;;;;;;3.63;0.90;;;18.60;99.90;;;;;;5013834;28;20056;-68
2021/07/05 07:40:15;;;;;;;3.50;1.20;;;18.60;99.90;;;;;;4996599;28;20368;-67
2021/07/05 07:42:41;;;;;;;7.07;1.58;;;18.60;99.90;;;;;;5012447;28;20026;-67
2021/07/05 07:45:09;;;;;;;2.92;1.23;;;18.60;99.90;;;;;;5016074;28;20029;-69
2021/07/05 07:47:35;;;;;;;3.72;1.10;;;18.70;99.90;;;;;;5013613;28;20080;-69
2021/07/05 07:50:02;;;;;;;2.15;0.93;;;18.70;99.90;;;;;;4996329;28;20026;-69
2021/07/05 07:52:28;;;;;;;2.30;1.40;;;18.80;99.90;;;;;;4996249;28;20042;-68
2021/07/05 07:54:54;;;;;;;2.67;1.25;;;18.90;99.90;;;;;;4996249;28;20052;-68
2021/07/05 07:57:20;;;;;;;3.95;1.00;;;18.90;99.90;;;;;;5013612;28;20475;-69
2021/07/05 07:59:46;;;;;;;4.13;1.10;;;18.90;99.90;;;;;;5012264;28;20034;-68
2021/07/05 08:02:13;;;;;;;4.75;1.38;;;18.90;99.90;;;;;;5013298;28;20037;-68
2021/07/05 08:04:40;;;;;;;3.15;1.02;;;18.90;99.90;;;;;;5013053;28;20049;-67
2021/07/05 08:07:06;;;;;;;4.13;1.15;;;18.90;99.90;;;;;;4995595;28;20045;-67
2021/07/05 08:09:34;;;;;;;2.80;1.10;;;19.00;99.90;;;;;;5015938;28;20399;-67
2021/07/05 08:12:00;;;;;;;3.40;1.10;;;19.00;99.90;;;;;;5013360;28;20018;-68
2021/07/05 08:14:27;;;;;;;4.65;1.15;;;18.90;99.90;;;;;;5013146;28;20040;-68
2021/07/05 08:16:53;;;;;;;3.08;1.35;;;18.90;99.90;;;;;;5013220;28;20490;-68
2021/07/05 08:19:19;;;;;;;2.53;1.08;;;19.00;99.90;;;;;;5025090;28;20045;-68
2021/07/05 08:21:45;;;;;;;1.60;0.95;;;19.00;99.90;;;;;;5031607;28;20025;-67
2021/07/05 08:24:12;;;;;;;2.78;1.10;;;19.00;99.90;;;;;;5032523;28;20033;-69
2021/07/05 08:26:39;;;;;;;1.88;1.10;;;19.20;99.90;;;;;;5018686;28;20029;-68
2021/07/05 08:29:05;;;;;;;5.57;1.20;;;19.10;99.90;;;;;;4995350;28;20034;-68
2021/07/05 08:31:31;;;;;;;3.72;1.15;;;19.10;99.90;;;;;;4995003;28;20463;-68
2021/07/05 08:33:59;;;;;;;1.88;0.90;;;19.10;99.90;;;;;;5012911;28;20030;-67
2021/07/05 08:36:26;;;;;;;3.05;0.95;;;19.30;99.90;;;;;;4995589;28;20025;-67
2021/07/05 08:38:51;;;;;;;4.18;1.20;;;19.40;99.90;;;;;;5012479;28;20042;-68
2021/07/05 08:41:18;;;;;;;10.18;1.95;;;19.30;99.90;;;;;;5012851;28;20061;-67
2021/07/05 08:43:46;;;;;;;5.55;1.30;;;19.30;99.90;;;;;;5011473;28;20018;-68
2021/07/05 08:46:17;;;;;;;6.00;1.70;;;19.50;99.90;;;;;;5014668;28;20038;-68
2021/07/05 08:48:45;;;;;;;2.85;1.00;;;19.50;99.90;;;;;;5027614;28;20087;-69
2021/07/05 08:51:18;;;;;;;3.75;0.95;;;19.70;99.90;;;;;;5012940;28;20030;-68
2021/07/05 08:53:46;;;;;;;1.85;1.10;;;19.60;99.90;;;;;;5012256;28;20540;-70
2021/07/05 08:56:12;;;;;;;2.50;0.90;;;19.60;99.90;;;;;;5012840;28;20057;-68
2021/07/05 08:58:43;;;;;;;3.20;1.20;;;19.70;99.90;;;;;;5012229;28;20502;-68
2021/07/05 09:01:11;;;;;;;1.67;0.90;;;19.70;99.90;;;;;;4995357;28;20038;-71
2021/07/05 09:03:37;;;;;;;7.45;1.08;;;19.70;99.90;;;;;;5015085;28;20034;-68
2021/07/05 09:06:15;;;;;;;2.65;1.13;;;19.60;99.90;;;;;;5012240;28;20046;-68
2021/07/05 09:09:07;;;;;;;2.75;0.93;;;19.50;99.90;;;;;;4995244;28;20030;-68
2021/07/05 09:11:49;;;;;;;3.13;1.08;;;19.40;99.90;;;;;;5012292;28;20034;-68
2021/07/05 09:14:21;;;;;;;4.63;1.00;;;19.20;99.90;;;;;;5011984;28;20057;-68
2021/07/05 09:16:49;;;;;;;3.58;1.00;;;19.20;99.90;;;;;;5012476;28;20041;-67
2021/07/05 09:19:32;;;;;;;3.92;0.88;;;19.30;99.90;;;;;;5012337;28;20037;-66
2021/07/05 09:22:08;;;;;;;3.00;1.08;;;19.30;99.90;;;;;;4997603;28;20498;-67
2021/07/05 09:24:39;;;;;;;6.28;1.60;;;19.20;99.90;;;;;;4994604;28;20125;-68
2021/07/05 09:27:14;;;;;;;6.93;1.23;;;19.20;99.90;;;;;;5014710;28;20034;-66
2021/07/05 09:29:42;;;;;;;3.65;1.10;;;19.10;99.90;;;;;;5011828;28;20129;-66
2021/07/05 09:32:29;;;;;;;2.78;1.02;;;19.20;99.90;;;;;;4995545;28;20034;-70
2021/07/05 09:34:57;;;;;;;3.58;1.27;;;19.10;99.90;;;;;;4998176;28;20065;-66
2021/07/05 09:37:27;;;;;;;3.38;1.10;;;19.00;99.90;;;;;;4998882;28;20022;-69
2021/07/05 09:40:07;;;;;;;3.20;1.20;;;19.00;99.90;;;;;;4982563;28;20034;-69
2021/07/05 09:42:53;;;;;;;3.22;1.50;;;19.00;99.90;;;;;;5034189;28;20667;-64
2021/07/05 09:45:32;;;;;;;4.05;1.45;;;19.00;99.90;;;;;;5035036;28;20043;-70
2021/07/05 09:48:23;;;;;;;3.75;1.50;;;18.90;99.90;;;;;;4999765;28;20034;-67
2021/07/05 09:51:05;;;;;;;3.10;1.48;;;19.00;99.90;;;;;;4998396;28;20076;-66
2021/07/05 09:53:43;;;;;;;6.90;2.15;;;18.90;99.90;;;;;;5015165;28;20029;-64
2021/07/05 09:56:35;;;;;;;2.22;1.20;;;19.00;99.90;;;;;;4982211;28;20036;-64
2021/07/05 09:59:18;;;;;;;2.58;1.08;;;19.00;99.90;;;;;;5010769;28;20491;-64
2021/07/05 10:01:47;;;;;;;2.88;1.00;;;19.10;99.90;;;;;;5017800;28;20036;-64
2021/07/05 10:04:32;;;;;;;2.35;1.10;;;19.20;99.90;;;;;;5034973;28;20124;-64
2021/07/05 10:07:04;;;;;;;5.50;1.10;;;19.20;99.90;;;;;;5034977;28;20533;-65
2021/07/05 10:09:37;;;;;;;3.78;1.25;;;19.20;99.90;;;;;;5001348;28;20402;-66
2021/07/05 10:12:26;;;;;;;3.42;1.10;;;19.30;99.90;;;;;;5017514;28;20069;-65
2021/07/05 10:14:54;;;;;;;3.38;1.20;;;19.40;99.90;;;;;;5023810;28;20036;-66
2021/07/05 10:17:21;;;;;;;1.73;1.00;;;19.40;99.90;;;;;;5026534;28;20474;-66
2021/07/05 10:19:47;;;;;;;3.90;1.02;;;19.30;99.90;;;;;;5007525;28;20041;-66
2021/07/05 10:22:15;;;;;;;1.42;0.93;;;19.30;99.90;;;;;;5007192;28;20022;-66
2021/07/05 10:24:44;;;;;;;2.97;1.35;;;19.30;99.90;;;;;;5031030;28;20041;-66
2021/07/05 10:27:11;;;;;;;2.28;1.30;;;19.10;99.90;;;;;;5031623;28;20029;-65
2021/07/05 10:29:39;;;;;;;3.50;1.23;;;19.10;99.90;;;;;;5034362;28;20033;-65
2021/07/05 10:32:06;;;;;;;7.18;1.42;;;19.10;99.90;;;;;;5023869;28;20030;-64
2021/07/05 10:34:33;;;;;;;2.53;1.40;;;19.20;99.90;;;;;;5017022;28;20077;-65
2021/07/05 10:37:02;;;;;;;2.10;1.25;;;19.40;99.90;;;;;;4997107;28;20037;-64
2021/07/05 10:39:29;;;;;;;2.22;1.20;;;19.50;99.90;;;;;;4997329;28;20044;-64
2021/07/05 10:41:55;;;;;;;2.55;1.40;;;19.50;99.90;;;;;;4996941;28;20029;-65
2021/07/05 10:44:44;;;;;;;3.47;1.70;;;19.50;99.90;;;;;;5017093;28;20029;-64
2021/07/05 10:47:10;;;;;;;2.30;1.10;;;19.50;99.90;;;;;;5021586;28;20482;-64
2021/07/05 10:49:46;;;;;;;3.03;1.60;;;19.60;99.90;;;;;;5013374;28;20037;-65
2021/07/05 10:52:16;;;;;;;4.20;1.33;;;19.60;99.90;;;;;;5014534;28;20037;-65
2021/07/05 10:54:54;;;;;;;5.28;1.40;;;19.80;99.90;;;;;;5014608;28;20033;-66
2021/07/05 10:57:32;;;;;;;2.58;1.20;;;19.80;99.90;;;;;;5014723;28;20120;-66
2021/07/05 11:00:18;;;;;;;3.83;1.25;;;20.00;99.90;;;;;;5014380;28;20038;-66
2021/07/05 11:02:46;;;;;;;2.30;1.25;;;20.00;99.90;;;;;;4996467;28;20475;-65
2021/07/05 11:05:44;;;;;;;7.22;1.80;;;20.10;99.90;;;;;;5014087;28;20041;-66
2021/07/05 11:08:38;;;;;;;2.15;1.20;;;20.10;99.90;;;;;;5014349;28;20040;-66
2021/07/05 11:11:10;;;;;;;4.65;1.45;;;20.00;99.90;;;;;;5014172;28;20498;-64
2021/07/05 11:13:38;;;;;;;4.18;1.30;;;20.00;99.90;;;;;;5014348;28;20029;-65
2021/07/05 11:16:04;;;;;;;6.13;1.58;;;20.10;99.90;;;;;;5014156;28;20037;-64
2021/07/05 11:18:36;;;;;;;4.78;1.13;;;20.20;99.90;;;;;;5014158;28;20413;-65
2021/07/05 11:21:03;;;;;;;1.63;0.75;;;20.10;99.90;;;;;;4979828;28;20709;-65
2021/07/05 11:23:55;;;;;;;3.75;0.90;;;19.90;99.90;;;;;;5014089;28;20034;-65
2021/07/05 11:26:23;;;;;;;2.33;0.90;;;19.80;99.90;;;;;;5013742;28;20137;-65
2021/07/05 11:29:22;;;;;;;3.63;0.85;;;19.70;99.90;;;;;;5013657;28;20022;-66
2021/07/05 11:31:52;;;;;;;2.55;0.73;;;19.70;99.90;;;;;;5013850;28;20080;-65
2021/07/05 11:34:30;;;;;;;2.25;0.77;;;19.90;99.90;;;;;;5013711;28;20064;-65
2021/07/05 11:37:11;;;;;;;2.80;0.98;;;19.90;99.90;;;;;;4996164;28;20130;-66
2021/07/05 11:39:38;;;;;;;;;;;19.90;99.90;;;;;;5014245;28;20040;-66
2021/07/05 11:42:04;;;;;;;2.13;0.70;;;19.90;99.90;;;;;;5013650;28;20058;-66
2021/07/05 11:44:48;;;;;;;6.28;1.70;;;19.90;99.90;;;;;;5013490;28;20609;-65
2021/07/05 11:47:36;;;;;;;3.33;0.75;;;20.20;99.90;;;;;;5014144;28;20042;-66
2021/07/05 11:50:14;;;;;;;2.90;0.75;;;20.40;99.90;;;;;;5013475;28;20044;-65
2021/07/05 11:53:02;;;;;;;4.00;0.55;;;20.70;99.90;;;;;;5028538;28;20022;-66
2021/07/05 11:55:35;;;;;;;1.38;0.73;;;20.80;99.90;;;;;;5028972;28;20034;-66
2021/07/05 11:58:09;;;;;;;3.17;0.93;;;20.80;99.90;;;;;;5033222;28;20040;-66
2021/07/05 12:00:39;;;;;;;1.75;0.80;;;20.60;99.90;;;;;;5031579;28;20128;-66
2021/07/05 12:03:10;;;;;;;0.82;0.57;;;20.70;99.90;;;;;;5031943;28;20034;-66
2021/07/05 12:05:39;;;;;;;2.05;0.98;;;20.50;99.90;;;;;;5032578;28;20136;-65
2021/07/05 12:08:15;;;;;;;2.13;1.00;;;20.20;99.90;;;;;;5031383;28;20037;-66
2021/07/05 12:10:44;;;;;;;2.45;0.80;;;19.90;99.90;;;;;;5015210;28;20490;-64
2021/07/05 12:13:23;;;;;;;1.85;0.70;;;19.70;99.90;;;;;;5031085;28;20116;-66
2021/07/05 12:16:05;;;;;;;2.58;0.70;;;19.50;99.90;;;;;;5031758;28;20047;-65
2021/07/05 12:18:31;;;;;;;3.13;0.88;;;19.60;99.90;;;;;;5031782;28;20025;-65
2021/07/05 12:21:07;;;;;;;4.05;1.00;;;19.90;99.90;;;;;;5032698;28;20033;-65
2021/07/05 12:23:39;;;;;;;1.60;0.95;;;20.10;99.90;;;;;;5031416;28;20111;-66
2021/07/05 12:26:23;;;;;;;1.60;0.95;;;20.30;99.90;;;;;;5031325;28;20045;-65
2021/07/05 12:29:06;;;;;;;4.18;1.20;;;20.20;99.90;;;;;;5031539;28;20524;-65
2021/07/05 12:31:33;;;;;;;2.47;1.00;;;20.10;99.90;;;;;;5032498;28;20387;-65
2021/07/05 12:34:00;;;;;;;1.13;0.85;;;20.00;99.90;;;;;;5032282;28;20037;-66
2021/07/05 12:36:27;;;;;;;2.97;1.25;;;19.80;99.90;;;;;;5032592;28;20458;-66
2021/07/05 12:39:01;;;;;;;2.25;1.10;;;19.70;99.90;;;;;;5030831;28;20037;-65
2021/07/05 12:41:28;;;;;;;2.13;1.30;;;19.60;99.90;;;;;;5032300;28;20554;-64
2021/07/05 12:44:16;;;;;;;3.55;1.42;;;19.50;99.90;;;;;;5031286;28;20064;-65
2021/07/05 12:46:43;;;;;;;3.85;1.20;;;19.60;99.90;;;;;;5014109;28;20476;-65
2021/07/05 12:49:10;;;;;;;2.53;1.30;;;19.80;99.90;;;;;;5030820;28;20025;-66
2021/07/05 12:51:37;;;;;;;3.10;1.50;;;19.90;99.90;;;;;;5030374;28;20025;-65
2021/07/05 12:54:19;;;;;;;2.45;1.40;;;19.90;99.90;;;;;;5031637;28;20044;-64
2021/07/05 12:56:45;;;;;;;2.97;1.70;;;19.90;99.90;;;;;;5032385;28;20053;-66
2021/07/05 12:59:20;;;;;;;3.35;1.30;;;20.10;99.90;;;;;;5030643;28;20059;-65
2021/07/05 13:01:47;;;;;;;2.50;1.10;;;20.50;99.90;;;;;;5031844;28;20116;-66